createdAt,value
2022-08-31T00:12:49.264Z,18.31
2022-08-31T00:15:20.674Z,18.37
2022-08-31T00:21:44.682Z,18.29
2022-08-31T00:24:13.243Z,18.30
2022-08-31T00:26:41.250Z,18.28
2022-08-31T00:29:09.702Z,18.29
2022-08-31T00:31:37.414Z,18.25
2022-08-31T00:34:05.644Z,18.26
2022-08-31T00:36:33.407Z,18.24
2022-08-31T00:39:00.983Z,18.22
2022-08-31T00:41:31.145Z,18.22
2022-08-31T00:51:36.713Z,18.17
2022-08-31T00:54:06.168Z,18.17
2022-08-31T00:56:35.875Z,18.17
2022-08-31T01:07:11.172Z,18.04
2022-08-31T01:13:20.974Z,18.01
2022-08-31T01:15:57.182Z,18.03
2022-08-31T01:18:25.130Z,18.01
2022-08-31T01:21:39.868Z,18.00
2022-08-31T01:28:28.212Z,17.95
2022-08-31T01:31:20.424Z,17.98
2022-08-31T01:33:48.537Z,17.96
2022-08-31T01:36:17.329Z,17.95
2022-08-31T01:38:45.310Z,17.94
2022-08-31T01:41:14.381Z,17.95
2022-08-31T01:43:42.265Z,17.95
2022-08-31T01:46:11.769Z,17.96
2022-08-31T01:52:31.769Z,17.89
2022-08-31T01:54:59.348Z,17.93
2022-08-31T01:57:34.394Z,17.92
2022-08-31T02:03:53.880Z,17.89
2022-08-31T02:06:25.288Z,17.90
2022-08-31T02:08:52.943Z,17.91
2022-08-31T02:11:20.659Z,17.91
2022-08-31T02:13:48.200Z,17.88
2022-08-31T02:28:59.598Z,17.65
2022-08-31T02:31:27.492Z,17.70
2022-08-31T02:37:46.375Z,17.66
2022-08-31T02:44:06.584Z,17.60
2022-08-31T02:46:34.749Z,17.62
2022-08-31T02:52:45.383Z,17.58
2022-08-31T02:55:13.243Z,17.58
2022-08-31T02:57:40.821Z,17.58
2022-08-31T03:00:11.331Z,17.56
2022-08-31T03:02:39.018Z,17.55
2022-08-31T03:08:58.794Z,17.48
2022-08-31T03:11:27.094Z,17.48
2022-08-31T03:13:58.501Z,17.48
2022-08-31T03:16:26.699Z,17.47
2022-08-31T03:22:45.784Z,17.41
2022-08-31T03:25:14.017Z,17.40
2022-08-31T03:27:41.738Z,17.40
2022-08-31T03:34:00.497Z,17.34
2022-08-31T03:36:28.254Z,17.34
2022-08-31T03:38:55.859Z,17.35
2022-08-31T03:41:25.753Z,17.34
2022-08-31T03:43:53.670Z,17.33
2022-08-31T03:46:21.467Z,17.33
2022-08-31T03:48:49.752Z,17.33
2022-08-31T03:51:17.653Z,17.32
2022-08-31T03:57:36.189Z,17.26
2022-08-31T04:00:06.457Z,17.26
2022-08-31T04:02:37.725Z,17.25
2022-08-31T04:12:48.018Z,17.11
2022-08-31T04:19:20.953Z,17.03
2022-08-31T04:21:48.595Z,17.04
2022-08-31T04:24:16.182Z,17.06
2022-08-31T04:30:41.672Z,17.02
2022-08-31T04:33:09.779Z,16.97
2022-08-31T04:35:42.166Z,17.00
2022-08-31T04:38:11.181Z,17.02
2022-08-31T04:40:44.879Z,17.01
2022-08-31T04:43:12.793Z,17.01
2022-08-31T04:45:46.036Z,17.01
2022-08-31T04:52:05.880Z,16.93
2022-08-31T04:58:25.235Z,16.92
2022-08-31T05:00:53.012Z,16.94
2022-08-31T05:03:21.064Z,16.91
2022-08-31T05:09:39.980Z,16.86
2022-08-31T05:12:07.706Z,16.89
2022-08-31T05:14:35.337Z,16.89
2022-08-31T05:20:55.873Z,16.85
2022-08-31T05:23:23.678Z,16.87
2022-08-31T05:25:51.166Z,16.86
2022-08-31T05:29:05.005Z,16.86
2022-08-31T05:31:37.135Z,16.83
2022-08-31T05:37:55.991Z,16.87
2022-08-31T05:40:23.720Z,16.89
2022-08-31T05:46:33.093Z,16.87
2022-08-31T05:49:00.698Z,16.92
2022-08-31T05:51:28.514Z,16.92
2022-08-31T05:53:59.335Z,16.95
2022-08-31T05:56:27.959Z,16.97
2022-08-31T06:02:50.144Z,16.93
2022-08-31T06:05:20.348Z,16.94
2022-08-31T06:07:48.203Z,16.97
2022-08-31T06:10:16.928Z,16.98
2022-08-31T06:12:45.412Z,16.97
2022-08-31T06:15:13.382Z,16.98
2022-08-31T06:17:43.356Z,17.00
2022-08-31T06:20:17.816Z,17.03
2022-08-31T06:22:45.782Z,17.04
2022-08-31T06:25:13.741Z,17.04
2022-08-31T06:27:41.335Z,17.05
2022-08-31T06:30:09.526Z,17.09
2022-08-31T06:32:40.078Z,17.13
2022-08-31T06:35:11.452Z,17.13
2022-08-31T06:37:39.052Z,17.13
2022-08-31T06:40:07.236Z,17.13
2022-08-31T06:46:28.007Z,17.13
2022-08-31T06:48:57.265Z,17.18
2022-08-31T06:51:29.995Z,17.19
2022-08-31T06:54:11.285Z,17.21
2022-08-31T06:56:46.416Z,17.24
2022-08-31T06:59:15.634Z,17.27
2022-08-31T07:01:43.632Z,17.27
2022-08-31T07:04:12.174Z,17.31
2022-08-31T07:06:44.827Z,17.31
2022-08-31T07:09:15.364Z,17.32
2022-08-31T07:11:46.704Z,17.35
2022-08-31T07:14:17.772Z,17.37
2022-08-31T07:16:46.084Z,17.37
2022-08-31T07:19:15.027Z,17.38
2022-08-31T07:21:46.015Z,17.37
2022-08-31T07:24:15.603Z,17.39
2022-08-31T07:26:46.830Z,17.41
2022-08-31T07:29:34.371Z,17.40
2022-08-31T07:32:02.010Z,17.41
2022-08-31T07:34:34.655Z,17.40
2022-08-31T07:37:03.599Z,17.40
2022-08-31T07:39:31.649Z,17.41
2022-08-31T07:41:59.210Z,17.41
2022-08-31T07:44:26.824Z,17.41
2022-08-31T07:50:18.043Z,17.44
2022-08-31T07:52:51.676Z,17.50
2022-08-31T07:55:20.894Z,17.53
2022-08-31T07:57:48.543Z,17.58
2022-08-31T08:00:21.295Z,17.62
2022-08-31T08:02:56.439Z,17.64
2022-08-31T08:05:28.937Z,17.64
2022-08-31T08:07:59.416Z,17.65
2022-08-31T08:10:26.999Z,17.58
2022-08-31T08:12:59.526Z,17.62
2022-08-31T08:15:30.750Z,17.62
2022-08-31T08:22:00.779Z,17.63
2022-08-31T08:24:28.782Z,17.67
2022-08-31T08:26:56.812Z,17.77
2022-08-31T08:29:25.119Z,17.82
2022-08-31T08:32:04.030Z,17.88
2022-08-31T08:34:32.911Z,17.95
2022-08-31T08:37:01.476Z,17.98
2022-08-31T08:39:29.167Z,18.02
2022-08-31T08:41:57.766Z,18.02
2022-08-31T08:44:29.029Z,18.06
2022-08-31T08:46:59.908Z,18.06
2022-08-31T08:49:54.855Z,18.11
2022-08-31T08:52:36.218Z,18.12
2022-08-31T08:55:07.974Z,18.17
2022-08-31T08:57:39.088Z,18.20
2022-08-31T09:00:11.506Z,18.12
2022-08-31T09:02:57.637Z,18.08
2022-08-31T09:05:43.240Z,18.06
2022-08-31T09:08:58.299Z,18.05
2022-08-31T09:11:37.742Z,18.14
2022-08-31T09:14:36.777Z,18.16
2022-08-31T09:17:25.351Z,18.18
2022-08-31T09:19:52.856Z,18.23
2022-08-31T09:22:20.423Z,18.25
2022-08-31T09:25:01.981Z,18.31
2022-08-31T09:27:41.071Z,18.35
2022-08-31T09:30:09.376Z,18.41
2022-08-31T09:36:22.902Z,18.52
2022-08-31T09:38:50.937Z,18.56
2022-08-31T09:45:23.454Z,18.64
2022-08-31T09:47:52.966Z,18.71
2022-08-31T09:50:57.978Z,18.73
2022-08-31T10:01:19.214Z,18.79
2022-08-31T10:07:32.936Z,18.84
2022-08-31T10:13:43.284Z,18.92
2022-08-31T10:16:29.390Z,18.88
2022-08-31T10:19:09.160Z,18.81
2022-08-31T10:22:06.380Z,18.77
2022-08-31T10:24:57.607Z,18.78
2022-08-31T10:27:29.659Z,18.80
2022-08-31T10:30:06.259Z,18.83
2022-08-31T10:36:16.320Z,18.89
2022-08-31T10:38:47.570Z,18.94
2022-08-31T10:45:18.619Z,19.10
2022-08-31T10:48:24.534Z,19.16
2022-08-31T10:51:35.693Z,19.18
2022-08-31T11:01:44.925Z,19.42
2022-08-31T11:12:18.334Z,19.87
2022-08-31T11:15:27.826Z,19.93
2022-08-31T11:18:13.882Z,20.00
2022-08-31T11:25:08.254Z,19.99
2022-08-31T11:35:36.440Z,19.77
2022-08-31T11:38:29.674Z,19.93
2022-08-31T11:41:01.370Z,20.08
2022-08-31T11:43:31.961Z,20.26
2022-08-31T11:46:21.443Z,20.46
2022-08-31T11:48:54.623Z,20.74
2022-08-31T11:51:29.049Z,21.18
2022-08-31T11:53:56.769Z,21.59
2022-08-31T11:56:38.370Z,21.84
2022-08-31T11:59:26.139Z,21.78
2022-08-31T12:05:48.239Z,21.73
2022-08-31T12:08:15.963Z,21.70
2022-08-31T12:14:44.409Z,21.39
2022-08-31T12:17:28.119Z,21.10
2022-08-31T12:20:30.009Z,20.93
2022-08-31T12:23:53.460Z,20.92
2022-08-31T12:26:56.694Z,20.94
2022-08-31T12:29:33.813Z,20.95
2022-08-31T12:36:17.362Z,20.66
2022-08-31T12:38:45.135Z,20.72
2022-08-31T12:41:15.462Z,20.77
2022-08-31T12:43:48.503Z,20.84
2022-08-31T12:46:54.323Z,20.94
2022-08-31T12:49:54.858Z,20.97
2022-08-31T12:53:08.014Z,20.74
2022-08-31T13:11:41.863Z,20.77
2022-08-31T13:14:24.248Z,20.87
2022-08-31T13:16:55.207Z,21.16
2022-08-31T13:19:57.937Z,21.42
2022-08-31T13:22:37.467Z,21.57
2022-08-31T13:25:19.980Z,21.67
2022-08-31T13:27:51.373Z,21.54
2022-08-31T13:34:20.720Z,21.27
2022-08-31T13:36:58.342Z,21.17
2022-08-31T13:39:34.003Z,21.16
2022-08-31T13:42:10.179Z,21.12
2022-08-31T13:44:43.509Z,21.06
2022-08-31T13:47:31.115Z,21.11
2022-08-31T13:50:21.659Z,21.14
2022-08-31T13:56:49.276Z,20.97
2022-08-31T14:07:06.958Z,20.73
2022-08-31T14:09:34.332Z,20.83
2022-08-31T14:12:01.815Z,20.92
2022-08-31T14:14:29.336Z,21.17
2022-08-31T14:16:59.221Z,21.50
2022-08-31T14:19:35.954Z,21.90
2022-08-31T14:22:53.979Z,22.40
2022-08-31T14:29:22.478Z,22.48
2022-08-31T14:31:53.328Z,22.14
2022-08-31T14:34:56.543Z,21.70
2022-08-31T14:45:43.956Z,20.12
2022-08-31T14:51:52.960Z,19.98
2022-08-31T14:54:37.775Z,20.00
2022-08-31T14:57:22.610Z,20.03
2022-08-31T14:59:52.150Z,20.05
2022-08-31T15:02:19.768Z,20.05
2022-08-31T15:04:47.947Z,19.78
2022-08-31T15:07:22.066Z,19.70
2022-08-31T15:09:50.243Z,19.52
2022-08-31T15:16:38.027Z,19.39
2022-08-31T15:23:05.582Z,19.27
2022-08-31T15:25:33.021Z,19.29
2022-08-31T15:28:02.375Z,19.30
2022-08-31T15:30:29.671Z,19.29
2022-08-31T15:32:58.813Z,19.25
2022-08-31T15:35:25.992Z,19.16
2022-08-31T15:37:58.361Z,19.18
2022-08-31T15:40:29.040Z,19.17
2022-08-31T15:42:56.981Z,19.18
2022-08-31T15:45:25.508Z,19.18
2022-08-31T15:51:45.184Z,19.10
2022-08-31T15:54:22.350Z,19.14
2022-08-31T15:56:56.727Z,19.18
2022-08-31T15:59:24.550Z,19.16
2022-08-31T16:01:52.454Z,19.19
2022-08-31T16:04:20.882Z,19.22
2022-08-31T16:06:48.754Z,19.19
2022-08-31T16:09:17.404Z,19.21
2022-08-31T16:11:44.970Z,19.37
2022-08-31T16:14:12.585Z,19.46
2022-08-31T16:16:43.670Z,19.52
2022-08-31T16:19:27.839Z,19.56
2022-08-31T16:21:59.707Z,19.58
2022-08-31T16:24:27.515Z,19.57
2022-08-31T16:26:55.135Z,19.49
2022-08-31T16:29:25.218Z,19.46
2022-08-31T16:31:52.861Z,19.41
2022-08-31T16:34:20.563Z,19.35
2022-08-31T16:36:51.191Z,19.27
2022-08-31T16:39:25.303Z,19.19
2022-08-31T16:42:07.125Z,19.16
2022-08-31T16:44:36.662Z,19.09
2022-08-31T16:50:56.172Z,18.95
2022-08-31T16:53:23.765Z,18.87
2022-08-31T16:55:51.385Z,18.88
2022-08-31T16:58:34.871Z,18.86
2022-08-31T17:01:08.447Z,18.74
2022-08-31T17:03:36.058Z,18.74
2022-08-31T17:06:03.738Z,18.69
2022-08-31T17:08:31.313Z,18.69
2022-08-31T17:10:58.871Z,18.69
2022-08-31T17:13:26.404Z,18.65
2022-08-31T17:15:54.046Z,18.65
2022-08-31T17:18:21.703Z,18.65
2022-08-31T17:20:49.330Z,18.66
2022-08-31T17:23:17.164Z,18.66
2022-08-31T17:25:44.760Z,18.65
2022-08-31T17:28:12.320Z,18.63
2022-08-31T17:30:40.744Z,18.61
2022-08-31T17:33:08.260Z,18.56
2022-08-31T17:35:35.791Z,18.52
2022-08-31T17:38:03.357Z,18.53
2022-08-31T17:40:31.033Z,18.50
2022-08-31T17:42:59.944Z,18.45
2022-08-31T17:45:27.716Z,18.45
2022-08-31T17:47:55.289Z,18.42
2022-08-31T17:50:22.879Z,18.35
2022-08-31T17:52:50.357Z,18.34
2022-08-31T17:55:18.018Z,18.33
2022-08-31T17:57:46.535Z,18.31
2022-08-31T18:00:14.313Z,18.31
2022-08-31T18:02:41.901Z,18.33
2022-08-31T18:05:11.809Z,18.32
2022-08-31T18:07:40.363Z,18.33
2022-08-31T18:10:08.367Z,18.32
2022-08-31T18:12:35.916Z,18.32
2022-08-31T18:15:03.671Z,18.29
2022-08-31T18:17:31.277Z,18.26
2022-08-31T18:19:58.821Z,18.24
2022-08-31T18:22:26.379Z,18.19
2022-08-31T18:24:53.920Z,18.20
2022-08-31T18:27:22.008Z,18.23
2022-08-31T18:29:49.578Z,18.22
2022-08-31T18:32:17.947Z,18.20
2022-08-31T18:34:45.901Z,18.16
2022-08-31T18:37:14.215Z,18.15
2022-08-31T18:39:51.592Z,18.11
2022-08-31T18:42:22.771Z,18.03
2022-08-31T18:44:50.465Z,18.04
2022-08-31T18:47:19.371Z,18.04
2022-08-31T18:49:47.994Z,18.00
2022-08-31T18:52:21.697Z,18.01
2022-08-31T18:54:52.506Z,17.99
2022-08-31T18:57:22.893Z,18.00
2022-08-31T18:59:50.517Z,17.98
2022-08-31T19:02:18.343Z,17.98
2022-08-31T19:04:45.916Z,17.96
2022-08-31T19:07:13.910Z,17.96
2022-08-31T19:09:41.733Z,17.96
2022-08-31T19:12:13.614Z,17.93
2022-08-31T19:14:51.113Z,17.90
2022-08-31T19:17:19.569Z,17.90
2022-08-31T19:19:49.445Z,17.90
2022-08-31T19:22:18.051Z,17.91
2022-08-31T19:24:45.813Z,17.87
2022-08-31T19:27:14.090Z,17.86
2022-08-31T19:29:42.196Z,17.87
2022-08-31T19:32:10.089Z,17.88
2022-08-31T19:34:41.882Z,17.88
2022-08-31T19:37:10.757Z,17.84
2022-08-31T19:39:38.055Z,17.79
2022-08-31T19:42:08.021Z,17.80
2022-08-31T19:47:31.835Z,17.81
2022-08-31T19:49:59.217Z,17.80
2022-08-31T19:52:26.403Z,17.81
2022-08-31T19:54:53.664Z,17.83
2022-08-31T19:57:20.881Z,17.82
2022-08-31T19:59:48.179Z,17.77
2022-08-31T20:02:15.761Z,17.80
2022-08-31T20:04:43.058Z,17.81
2022-08-31T20:07:10.203Z,17.80
2022-08-31T20:09:37.389Z,17.80
2022-08-31T20:12:05.033Z,17.79
2022-08-31T20:14:32.451Z,17.77
2022-08-31T20:16:59.758Z,17.74
2022-08-31T20:19:29.382Z,17.77
2022-08-31T20:21:59.259Z,17.72
2022-08-31T20:24:27.102Z,17.71
2022-08-31T20:26:55.230Z,17.73
2022-08-31T20:29:22.747Z,17.74
2022-08-31T20:31:52.195Z,17.74
2022-08-31T20:34:23.424Z,17.74
2022-08-31T20:36:51.620Z,17.73
2022-08-31T20:39:19.946Z,17.70
2022-08-31T20:41:50.871Z,17.66
2022-08-31T20:44:31.517Z,17.66
2022-08-31T20:47:09.816Z,17.66
2022-08-31T20:49:46.006Z,17.61
2022-08-31T20:52:16.491Z,17.61
2022-08-31T20:54:44.349Z,17.59
2022-08-31T20:57:13.770Z,17.58
2022-08-31T20:59:41.484Z,17.54
2022-08-31T21:02:10.953Z,17.53
2022-08-31T21:04:42.570Z,17.53
2022-08-31T21:07:11.445Z,17.54
2022-08-31T21:09:42.013Z,17.52
2022-08-31T21:12:14.828Z,17.44
2022-08-31T21:14:46.511Z,17.40
2022-08-31T21:17:15.297Z,17.33
2022-08-31T21:19:44.286Z,17.34
2022-08-31T21:22:15.408Z,17.32
2022-08-31T21:24:43.301Z,17.22
2022-08-31T21:27:16.177Z,17.20
2022-08-31T21:29:45.172Z,17.22
2022-08-31T21:32:15.872Z,17.23
2022-08-31T21:34:43.146Z,17.22
2022-08-31T21:37:10.891Z,17.19
2022-08-31T21:39:40.803Z,17.21
2022-08-31T21:42:08.153Z,17.17
2022-08-31T21:44:35.462Z,17.17
2022-08-31T21:47:03.196Z,17.13
2022-08-31T21:49:30.373Z,17.15
2022-08-31T21:51:58.877Z,17.15
2022-08-31T21:54:29.021Z,17.14
2022-08-31T21:57:02.784Z,17.12
2022-08-31T21:59:35.167Z,17.11
2022-08-31T22:02:09.619Z,17.09
2022-08-31T22:04:42.409Z,17.05
2022-08-31T22:07:11.312Z,17.09
2022-08-31T22:09:38.574Z,17.11
2022-08-31T22:12:06.541Z,17.07
2022-08-31T22:14:37.480Z,17.06
2022-08-31T22:17:06.189Z,17.06
2022-08-31T22:19:39.253Z,17.03
2022-08-31T22:22:11.844Z,17.04
2022-08-31T22:24:42.117Z,17.04
2022-08-31T22:27:11.894Z,16.95
2022-08-31T22:29:40.860Z,16.87
2022-08-31T22:32:14.674Z,16.83
2022-08-31T22:34:43.437Z,16.75
2022-08-31T22:37:11.148Z,16.72
2022-08-31T22:39:40.610Z,16.76
2022-08-31T22:42:08.118Z,16.74
2022-08-31T22:44:35.826Z,16.73
2022-08-31T22:47:03.783Z,16.70
2022-08-31T22:49:31.378Z,16.70
2022-08-31T22:51:58.687Z,16.65
2022-08-31T22:54:26.622Z,16.66
2022-08-31T22:56:54.601Z,16.65
2022-08-31T22:59:25.008Z,16.58
2022-08-31T23:01:54.601Z,16.59
2022-08-31T23:04:25.164Z,16.64
2022-08-31T23:06:53.725Z,16.65
2022-08-31T23:09:22.566Z,16.70
2022-08-31T23:11:50.654Z,16.73
2022-08-31T23:14:18.194Z,16.73
2022-08-31T23:16:50.023Z,16.79
2022-08-31T23:19:20.750Z,16.81
2022-08-31T23:21:52.614Z,16.77
2022-08-31T23:24:39.326Z,16.75
2022-08-31T23:27:08.893Z,16.75
2022-08-31T23:29:43.984Z,16.77
2022-08-31T23:32:11.454Z,16.77
2022-08-31T23:34:40.210Z,16.77
2022-08-31T23:37:08.809Z,16.79
2022-08-31T23:39:40.749Z,16.82
2022-08-31T23:42:08.723Z,16.81
2022-08-31T23:44:35.940Z,16.79
2022-08-31T23:47:03.233Z,16.83
2022-08-31T23:49:30.420Z,16.81
2022-08-31T23:51:57.667Z,16.80
2022-08-31T23:54:24.860Z,16.82
2022-08-31T23:56:52.076Z,16.82
2022-08-31T23:59:19.688Z,16.78
